Data for 03/18/2010

Time Sea-Level Adjusted Pressure Absolute Pressure Temperature Relative Humidity Dew Point   
(mb) (inHg) (mb) (inHg) (C) (F) (%) (C) (F)
00:05 1021 30.15 850 25.1 4.5 40.2 54 -3.9 24.9
00:10 1021 30.15 850 25.1 4.4 39.9 54 -4 24.7
00:15 1021 30.15 850 25.1 4.3 39.7 55 -4 24.8
00:20 1021 30.15 850 25.1 4.2 39.5 55 -4.1 24.7
00:25 1021 30.15 850 25.1 4.2 39.5 55 -4.1 24.6
00:30 1021 30.15 850 25.1 4.1 39.5 55 -4.1 24.7
00:35 1021 30.15 850 25.1 4.2 39.5 55 -4.1 24.6
00:40 1021 30.15 850 25.1 4.2 39.5 55 -4.1 24.6
00:45 1021 30.15 850 25.1 4.2 39.5 55 -4.1 24.6
00:50 1021 30.15 850 25.1 4.1 39.3 55 -4.1 24.6
00:55 1021 30.15 850 25.1 4 39.1 55 -4.2 24.4
01:00 1021 30.15 850 25.1 3.9 39.1 56 -4.1 24.7
01:05 1021 30.15 850 25.1 3.9 39 54 -4.5 23.9
01:10 1021 30.15 850 25.1 3.9 39 55 -4.4 24.1
01:15 1021 30.15 850 25.1 3.8 38.9 56 -4.2 24.5
01:20 1021 30.15 850 25.1 3.6 38.5 55 -4.6 23.7
01:25 1021 30.15 850 25.1 3.7 38.7 54 -4.7 23.5
01:30 1021 30.15 850 25.1 3.6 38.6 56 -4.4 24.1
01:35 1021 30.15 850 25.1 3.6 38.5 54 -5 23.1
01:40 1021 30.15 850 25.1 3.8 38.8 53 -5.1 22.9
01:45 1021 30.15 850 25.1 3.7 38.7 51 -5.4 22.2
01:50 1021 30.15 850 25.1 3.7 38.7 50 -5.7 21.8
01:55 1021 30.15 850 25.1 3.8 38.9 50 -5.7 21.7
02:00 1021 30.15 850 25.1 3.8 38.8 52 -5.2 22.7
02:05 1021 30.15 850 25.1 3.6 38.5 52 -5.2 22.6
02:10 1021 30.15 851 25.13 3.5 38.2 54 -5 22.9
02:15 1021 30.15 851 25.13 3.3 38 54 -5 23
02:20 1021 30.15 851 25.13 3.3 37.9 54 -5.1 22.8
02:25 1021 30.15 851 25.13 3.1 37.6 53 -5.5 22.1
02:30 1021 30.15 851 25.13 3.1 37.6 54 -5.4 22.3
02:35 1021 30.15 851 25.13 3.1 37.5 51 -6 21.1
02:40 1022 30.18 851 25.13 3.2 37.8 50 -6.1 21
02:45 1022 30.18 851 25.13 3.2 37.8 50 -6.3 20.7
02:50 1022 30.18 851 25.13 3.2 37.7 50 -6.3 20.6
02:55 1021 30.15 851 25.13 3.2 37.7 49 -6.5 20.3
03:00 1022 30.18 851 25.13 3.1 37.6 49 -6.5 20.3
03:05 1022 30.18 851 25.13 3.1 37.5 49 -6.7 19.9
03:10 1022 30.18 851 25.13 3 37.5 51 -6.2 20.9
03:15 1022 30.18 851 25.13 2.7 36.8 53 -6 21.3
03:20 1022 30.18 851 25.13 2.7 36.9 50 -6.6 20.2
03:25 1022 30.18 851 25.13 2.7 36.9 53 -6 21.2
03:30 1022 30.18 851 25.13 2.5 36.5 54 -5.9 21.4
03:35 1022 30.18 851 25.13 2.3 36.1 54 -6 21.2
03:40 1022 30.18 851 25.13 2.4 36.2 53 -6.3 20.7
03:45 1022 30.18 851 25.13 2.5 36.5 51 -6.5 20.2
03:50 1022 30.18 851 25.13 2.6 36.7 51 -6.6 20.1
03:55 1022 30.18 851 25.13 2.7 36.8 50 -6.7 20
04:00 1022 30.18 851 25.13 2.7 36.8 49 -7.1 19.3
04:05 1022 30.18 851 25.13 2.7 36.8 50 -6.8 19.8
04:10 1022 30.18 851 25.13 2.7 36.8 50 -6.7 20
04:15 1022 30.18 851 25.13 2.6 36.8 50 -6.9 19.6
04:20 1022 30.18 851 25.13 2.6 36.7 50 -6.9 19.6
04:25 1022 30.18 851 25.13 2.6 36.6 50 -6.8 19.7
04:30 1022 30.18 851 25.13 2.5 36.5 50 -6.8 19.8
04:35 1022 30.18 851 25.13 2.5 36.4 51 -6.6 20.2
04:40 1022 30.18 851 25.13 2.4 36.3 52 -6.5 20.3
04:45 1022 30.18 851 25.13 2.3 36.2 51 -6.8 19.8
04:50 1022 30.18 851 25.13 2.3 36.2 52 -6.6 20.1
04:55 1022 30.18 851 25.13 2.3 36.1 52 -6.6 20.2
05:00 1022 30.18 851 25.13 2.2 36 51 -6.8 19.8
05:05 1022 30.18 851 25.13 2.3 36.1 51 -6.7 19.9
05:10 1022 30.18 851 25.13 2.3 36.1 50 -7.2 19.1
05:15 1022 30.18 851 25.13 2.2 36 49 -7.3 18.8
05:20 1022 30.18 851 25.13 2.1 35.7 50 -7.4 18.7
05:25 1022 30.18 851 25.13 1.9 35.4 50 -7.6 18.4
05:30 1022 30.18 851 25.13 1.8 35.2 50 -7.7 18.2
05:35 1022 30.18 851 25.13 1.7 35.1 51 -7.5 18.6
05:40 1022 30.18 851 25.13 1.7 35.1 50 -7.6 18.3
05:45 1022 30.18 851 25.13 1.7 35.1 50 -7.6 18.3
05:50 1022 30.18 851 25.13 1.7 35 50 -7.7 18.2
05:55 1022 30.18 851 25.13 1.6 34.9 50 -7.7 18.2
06:00 1022 30.18 851 25.13 1.6 34.9 50 -7.6 18.3
06:05 1022 30.18 851 25.13 1.6 34.8 51 -7.6 18.3
06:10 1022 30.18 851 25.13 1.5 34.8 50 -7.8 18
06:15 1022 30.18 851 25.13 1.5 34.8 50 -7.8 18
06:20 1022 30.18 851 25.13 1.5 34.8 50 -7.9 17.8
06:25 1022 30.18 851 25.13 1.5 34.8 51 -7.5 18.4
06:30 1022 30.18 851 25.13 1.5 34.7 52 -7.2 19
06:35 1022 30.18 851 25.13 1.4 34.6 52 -7.4 18.7
06:40 1022 30.18 852 25.16 1.4 34.5 52 -7.3 18.8
06:45 1022 30.18 852 25.16 1.5 34.6 53 -7.1 19.3
06:50 1023 30.21 852 25.16 1.3 34.4 55 -6.9 19.7
06:55 1023 30.21 852 25.16 1.1 34.1 54 -7.1 19.2
07:00 1023 30.21 852 25.16 1.2 34.2 54 -7 19.4
07:05 1023 30.21 852 25.16 1.3 34.3 52 -7.6 18.2
07:10 1023 30.21 852 25.16 1.3 34.4 52 -7.4 18.6
07:15 1023 30.21 852 25.16 1.3 34.3 53 -7.2 19
07:20 1023 30.21 852 25.16 1.3 34.4 53 -7.4 18.8
07:25 1023 30.21 852 25.16 1.3 34.3 53 -7.3 18.8
07:30 1023 30.21 852 25.16 1.2 34.2 54 -7.1 19.2
07:35 1023 30.21 852 25.16 1.2 34.2 55 -6.8 19.7
07:40 1023 30.21 852 25.16 1.1 34 57 -6.6 20.2
07:45 1023 30.21 852 25.16 0.9 33.7 58 -6.5 20.4
07:50 1023 30.21 852 25.16 0.8 33.4 59 -6.4 20.5
07:55 1023 30.21 852 25.16 0.5 32.9 59 -6.5 20.2
08:00 1023 30.21 852 25.16 0.5 32.9 59 -6.7 20
08:05 1023 30.21 852 25.16 0.5 32.8 59 -6.7 20
08:10 1023 30.21 852 25.16 0.6 33.2 55 -7.4 18.7
08:15 1023 30.21 852 25.16 0.9 33.6 54 -7.4 18.6
08:20 1023 30.21 852 25.16 0.9 33.6 53 -7.8 18
08:25 1023 30.21 852 25.16 0.9 33.7 52 -7.9 17.9
08:30 1023 30.21 852 25.16 0.9 33.6 54 -7.5 18.6
08:35 1023 30.21 852 25.16 0.9 33.7 53 -7.6 18.4
08:40 1023 30.21 852 25.16 0.9 33.7 55 -7.2 19
08:45 1023 30.21 852 25.16 0.8 33.5 55 -7.2 19
08:50 1023 30.21 852 25.16 0.9 33.5 53 -7.7 18.2
08:55 1023 30.21 852 25.16 0.8 33.5 53 -7.7 18.1
09:00 1023 30.21 852 25.16 0.9 33.5 54 -7.5 18.5
09:05 1023 30.21 852 25.16 0.9 33.6 52 -7.9 17.9
09:10 1023 30.21 852 25.16 1 33.7 52 -7.9 17.7
09:15 1023 30.21 852 25.16 1 33.7 50 -8.2 17.2
09:20 1023 30.21 852 25.16 1 33.9 50 -8.3 17
09:25 1023 30.21 852 25.16 1.2 34.2 48 -8.7 16.4
09:30 1023 30.21 852 25.16 1.4 34.6 48 -8.4 16.9
09:35 1023 30.21 852 25.16 1.6 34.8 48 -8.3 17.1
09:40 1023 30.21 852 25.16 1.6 34.9 47 -8.5 16.7
09:45 1023 30.21 852 25.16 1.6 34.9 49 -8 17.7
09:50 1023 30.21 852 25.16 1.8 35.2 49 -7.9 17.7
09:55 1023 30.21 852 25.16 2 35.6 48 -7.8 17.9
10:00 1023 30.21 852 25.16 2.3 36.1 45 -8.3 17
10:05 1023 30.21 852 25.16 1.7 35 48 -8.2 17.2
10:10 1023 30.21 852 25.16 2.1 35.7 44 -9 15.8
10:15 1023 30.21 853 25.19 2.3 36.2 45 -8.6 16.6
10:20 1023 30.21 853 25.19 2.3 36.2 42 -9.2 15.4
10:25 1023 30.21 853 25.19 2.2 36 44 -8.8 16.1
10:30 1023 30.21 853 25.19 2.4 36.2 41 -9.5 14.8
10:35 1023 30.21 853 25.19 1.9 35.4 44 -9.1 15.7
10:40 1024 30.24 853 25.19 2 35.6 46 -8.4 16.8
10:45 1024 30.24 853 25.19 1.8 35.3 47 -8.2 17.3
10:50 1024 30.24 853 25.19 2.2 36 45 -8.6 16.4
10:55 1024 30.24 853 25.19 2.4 36.3 45 -8.4 16.9
11:00 1024 30.24 853 25.19 2.2 36 44 -8.8 16.1
11:05 1024 30.24 853 25.19 2.8 37.1 42 -8.8 16.1
11:10 1024 30.24 853 25.19 2.8 37.1 41 -9.2 15.4
11:15 1024 30.24 853 25.19 3.1 37.5 40 -9.4 15.1
11:20 1024 30.24 853 25.19 3.2 37.8 39 -9.4 15.2
11:25 1024 30.24 853 25.19 3.5 38.2 38 -9.7 14.6
11:30 1024 30.24 853 25.19 3.3 38 37 -10.1 13.8
11:35 1024 30.24 853 25.19 2.9 37.3 40 -9.5 14.9
11:40 1024 30.24 853 25.19 2.8 37.1 39 -9.9 14.2
11:45 1023 30.21 853 25.19 2.9 37.2 39 -9.7 14.6
11:50 1023 30.21 853 25.19 3.8 38.8 36 -10 14.1
11:55 1023 30.21 853 25.19 5 41 35 -9.2 15.5
12:00 1023 30.21 853 25.19 3.4 38.1 40 -8.8 16.2
12:05 1023 30.21 852 25.16 3.1 37.5 38 -9.8 14.3
12:10 1023 30.21 852 25.16 3.2 37.8 40 -9.3 15.3
12:15 1023 30.21 852 25.16 2.4 36.4 43 -8.8 16.2
12:20 1023 30.21 852 25.16 2.6 36.6 41 -9.3 15.3
12:25 1023 30.21 852 25.16 2.7 36.8 41 -9.2 15.4
12:30 1023 30.21 852 25.16 2.1 35.8 45 -8.5 16.7
12:35 1023 30.21 852 25.16 2.3 36.1 45 -8.4 16.8
12:40 1023 30.21 852 25.16 2.2 35.9 43 -9.2 15.5
12:45 1023 30.21 852 25.16 2.7 36.9 43 -8.8 16.2
12:50 1023 30.21 852 25.16 2.7 36.8 43 -8.8 16.2
12:55 1023 30.21 852 25.16 2.2 36 43 -9 15.8
13:00 1023 30.21 852 25.16 2.6 36.6 43 -8.7 16.3
13:05 1023 30.21 852 25.16 2.6 36.7 45 -8.3 17.1
13:10 1022 30.18 852 25.16 2.6 36.7 43 -8.7 16.3
13:15 1022 30.18 852 25.16 2.5 36.5 44 -8.6 16.6
13:20 1022 30.18 852 25.16 2.6 36.6 43 -8.8 16.2
13:25 1022 30.18 852 25.16 2.4 36.3 43 -8.9 16
13:30 1022 30.18 851 25.13 3.1 37.6 40 -9.2 15.4
13:35 1022 30.18 851 25.13 3.2 37.7 40 -9.2 15.4
13:40 1022 30.18 851 25.13 3.4 38.2 42 -8.2 17.3
13:45 1022 30.18 851 25.13 2.9 37.2 42 -8.8 16.2
13:50 1022 30.18 851 25.13 3.1 37.6 40 -9.1 15.6
13:55 1022 30.18 851 25.13 3.4 38.1 42 -8.4 16.8
14:00 1022 30.18 851 25.13 3.1 37.7 43 -8.3 17
14:05 1022 30.18 851 25.13 3.3 38 43 -8.1 17.4
14:10 1022 30.18 851 25.13 2.9 37.2 42 -8.9 15.9
14:15 1022 30.18 851 25.13 3.1 37.5 41 -8.9 16
14:20 1022 30.18 851 25.13 3.5 38.2 40 -9 15.7
14:25 1022 30.18 851 25.13 3.3 38 40 -8.9 16
14:30 1022 30.18 851 25.13 3.4 38.1 40 -8.8 16.1
14:35 1022 30.18 851 25.13 4.3 39.7 36 -9.4 15
14:40 1022 30.18 851 25.13 4.2 39.5 39 -8.7 16.3
14:45 1021 30.15 851 25.13 4.1 39.4 39 -8.7 16.3
14:50 1021 30.15 851 25.13 4.2 39.6 36 -9.5 14.9
14:55 1021 30.15 851 25.13 4.7 40.5 34 -9.9 14.1
15:00 1021 30.15 850 25.1 4.4 40 36 -9.5 14.8
15:05 1021 30.15 850 25.1 4.6 40.2 33 -10.3 13.4
15:10 1021 30.15 850 25.1 4.5 40.2 35 -9.6 14.7
15:15 1021 30.15 850 25.1 4.3 39.7 33 -10.5 13.1
15:20 1021 30.15 850 25.1 4.7 40.5 36 -9.1 15.6
15:25 1021 30.15 850 25.1 4.4 39.9 36 -9.3 15.2
15:30 1021 30.15 850 25.1 5.5 41.9 30 -10.8 12.6
15:35 1021 30.15 850 25.1 5.4 41.7 32 -10.2 13.6
15:40 1021 30.15 850 25.1 5.2 41.4 30 -11 12.2
15:45 1021 30.15 850 25.1 5.5 41.9 30 -10.9 12.3
15:50 1021 30.15 850 25.1 5.9 42.5 29 -11 12.2
15:55 1021 30.15 850 25.1 5.7 42.3 29 -11.2 11.9
16:00 1021 30.15 850 25.1 5.4 41.7 34 -9.4 15.1
16:05 1021 30.15 850 25.1 5.3 41.5 32 -10.2 13.7
16:10 1021 30.15 850 25.1 5.4 41.7 33 -9.8 14.4
16:15 1021 30.15 850 25.1 4.9 40.8 32 -10.4 13.3
16:20 1021 30.15 850 25.1 5.1 41.1 33 -10 14
16:25 1021 30.15 850 25.1 5.1 41.2 31 -10.7 12.7
16:30 1021 30.15 850 25.1 5.8 42.5 30 -10.5 13
16:35 1021 30.15 850 25.1 6.1 42.9 29 -10.7 12.8
16:40 1021 30.15 850 25.1 6.2 43.2 29 -10.7 12.8
16:45 1021 30.15 850 25.1 6.9 44.4 33 -8.3 17.1
16:50 1021 30.15 850 25.1 5.2 41.4 41 -6.9 19.6
16:55 1021 30.15 850 25.1 4.2 39.5 42 -7.7 18.2
17:00 1021 30.15 850 25.1 3.9 39 42 -7.7 18.1
17:05 1021 30.15 850 25.1 3.8 38.9 39 -8.9 15.9
17:10 1021 30.15 850 25.1 4.5 40.1 37 -8.8 16.1
17:15 1021 30.15 850 25.1 4.8 40.7 32 -10.4 13.3
17:20 1021 30.15 850 25.1 4.7 40.5 33 -10.4 13.3
17:25 1021 30.15 850 25.1 5.1 41.1 32 -10.4 13.2
17:30 1021 30.15 850 25.1 5.7 42.3 31 -10.2 13.6
17:35 1021 30.15 850 25.1 5.8 42.4 32 -9.8 14.3
17:40 1021 30.15 850 25.1 4.7 40.5 33 -10.4 13.3
17:45 1021 30.15 850 25.1 4.3 39.8 34 -10.3 13.5
17:50 1021 30.15 850 25.1 4.3 39.7 34 -10.4 13.3
17:55 1021 30.15 850 25.1 4.5 40 34 -10 14.1
18:00 1021 30.15 850 25.1 4.4 39.9 35 -9.7 14.6
18:05 1021 30.15 850 25.1 5.2 41.4 32 -10.3 13.4
18:10 1021 30.15 850 25.1 5.6 42.1 33 -9.5 14.9
18:15 1021 30.15 850 25.1 5.8 42.4 31 -10.2 13.7
18:20 1021 30.15 850 25.1 5.7 42.3 33 -9.5 14.9
18:25 1021 30.15 850 25.1 5.1 41.1 32 -10.3 13.4
18:30 1021 30.15 850 25.1 5.7 42.3 30 -10.5 13.1
18:35 1021 30.15 850 25.1 5.8 42.5 31 -10 14
18:40 1021 30.15 850 25.1 5.8 42.4 31 -10.2 13.7
18:45 1021 30.15 850 25.1 5.8 42.5 31 -9.9 14.1
18:50 1021 30.15 850 25.1 5.3 41.5 34 -9.4 15
18:55 1021 30.15 850 25.1 4.4 39.9 37 -9.2 15.5
19:00 1021 30.15 850 25.1 3.6 38.5 38 -9.4 15.1
19:05 1021 30.15 850 25.1 3.6 38.4 39 -9 15.8
19:10 1021 30.15 850 25.1 3.6 38.6 39 -9 15.8
19:15 1021 30.15 850 25.1 3.5 38.2 40 -9 15.8
19:20 1021 30.15 850 25.1 3.5 38.2 39 -9.2 15.4
19:25 1021 30.15 850 25.1 3.3 37.9 42 -8.4 17
19:30 1021 30.15 850 25.1 3 37.4 45 -7.7 18.1
19:35 1021 30.15 850 25.1 2.7 36.8 48 -7.4 18.7
19:40 1021 30.15 850 25.1 2.3 36.1 54 -6.2 20.8
19:45 1021 30.15 850 25.1 1.9 35.3 59 -5.3 22.5
19:50 1021 30.15 850 25.1 1.3 34.4 64 -4.7 23.6
19:55 1021 30.15 850 25.1 1.1 33.9 66 -4.6 23.7
20:00 1021 30.15 850 25.1 1 33.7 66 -4.7 23.6
20:05 1021 30.15 850 25.1 0.9 33.7 65 -4.8 23.3
20:10 1021 30.15 850 25.1 0.9 33.6 66 -4.8 23.3
20:15 1021 30.15 850 25.1 0.7 33.3 67 -4.7 23.6
20:20 1021 30.15 850 25.1 0.5 32.9 69 -4.5 23.9
20:25 1021 30.15 850 25.1 0.4 32.7 69 -4.6 23.7
20:30 1021 30.15 850 25.1 0.4 32.7 70 -4.5 23.9
20:35 1021 30.15 850 25.1 0.3 32.5 70 -4.5 23.9
20:40 1021 30.15 850 25.1 0.2 32.4 70 -4.6 23.8
20:45 1021 30.15 850 25.1 0.2 32.3 71 -4.5 24
20:50 1021 30.15 850 25.1 0.1 32.2 71 -4.5 23.9
20:55 1021 30.15 850 25.1 -0 32 71 -4.6 23.7
21:00 1021 30.15 850 25.1 0 32 70 -4.9 23.2
21:05 1021 30.15 850 25.1 0.1 32.1 69 -5 23
21:10 1021 30.15 850 25.1 0 32.1 69 -4.9 23.2
21:15 1021 30.15 850 25.1 0.1 32.1 70 -4.8 23.3
21:20 1021 30.15 850 25.1 0 32.1 69 -4.9 23.1
21:25 1021 30.15 850 25.1 0.1 32.2 68 -5.1 22.8
21:30 1021 30.15 850 25.1 0.1 32.3 68 -5 23
21:35 1021 30.15 850 25.1 0.1 32.2 69 -5 23.1
21:40 1021 30.15 850 25.1 0 32.1 70 -4.7 23.5
21:45 1021 30.15 850 25.1 -0.1 31.9 72 -4.6 23.7
21:50 1021 30.15 850 25.1 -0.1 31.7 73 -4.5 24
21:55 1021 30.15 850 25.1 -0.2 31.6 73 -4.4 24
22:00 1021 30.15 850 25.1 -0.3 31.5 74 -4.4 24
22:05 1021 30.15 850 25.1 -0.3 31.5 73 -4.5 23.9
22:10 1021 30.15 850 25.1 -0.4 31.4 74 -4.4 24.1
22:15 1021 30.15 850 25.1 -0.4 31.3 74 -4.5 24
22:20 1021 30.15 850 25.1 -0.4 31.2 75 -4.4 24.1
22:25 1021 30.15 850 25.1 -0.4 31.2 75 -4.3 24.2
22:30 1021 30.15 850 25.1 -0.6 31 76 -4.3 24.2
22:35 1021 30.15 850 25.1 -0.7 30.8 76 -4.3 24.2
22:40 1021 30.15 850 25.1 -0.7 30.8 76 -4.3 24.2
22:45 1021 30.15 850 25.1 -0.6 30.9 76 -4.3 24.2
22:50 1021 30.15 850 25.1 -0.6 30.9 77 -4.2 24.5
22:55 1021 30.15 851 25.13 -0.6 31 77 -4.2 24.4
23:00 1022 30.18 851 25.13 -0.4 31.2 75 -4.4 24.1
23:05 1022 30.18 851 25.13 -0.3 31.4 74 -4.4 24.1
23:10 1022 30.18 851 25.13 -0.3 31.5 70 -5.2 22.7
23:15 1022 30.18 851 25.13 -0.2 31.7 72 -4.6 23.8
23:20 1022 30.18 851 25.13 -0.6 31 78 -3.9 25
23:25 1022 30.18 851 25.13 -0.7 30.8 78 -4 24.7
23:30 1022 30.18 851 25.13 -0.8 30.6 79 -4 24.8
23:35 1022 30.18 851 25.13 -0.9 30.4 80 -4 24.9
23:40 1022 30.18 851 25.13 -0.8 30.6 79 -3.9 24.9
23:45 1022 30.18 851 25.13 -0.7 30.7 81 -3.6 25.4
23:50 1022 30.18 851 25.13 -0.9 30.4 83 -3.4 25.9
23:55 1022 30.18 851 25.13 -1 30.2 85 -3.1 26.4
24:00 1022 30.18 851 25.13 -0.8 30.5 86 -2.9 26.7